Urania — PAFG — position and weather

sailwx.info

Track history (hours):
 
Tides and Currents Weather Stations Pressure Air Temp Water Temp Dewpoint Dewpoint Depression Visibility Wind Speed Wind Dir Waves Ship Positions

Urania (Netherlands)

Flagship of the Royal Netherlands Naval College.

Last reported at 2017-May-29 11:30 UTC. Time now 2017-May-29 11:28 UTC.
Position N 50°14' W 003°29'.

Length 27 m; draft 2.6 m.

Type: Sailing vessel. MMSI: 245804000.

Date/timePositionNaut miles runAvg speedWind from/ knotsBaromVisibWave heightAir tempDewpointWater temp
2017-May-29 11:30N 50°14' W 003°29'3 5.9
2017-May-29 11:00N 50°16' W 003°32'1 2.5
2017-May-29 10:29N 50°17' W 003°33'1 2.7
2017-May-29 10:00N 50°19' W 003°32'2 3.6
2017-May-29 09:30N 50°20' W 003°34'1 2.6
2017-May-29 08:59N 50°22' W 003°35'0 0.0
2017-May-29 08:26N 50°22' W 003°35'0 0.0
2017-May-29 07:53N 50°22' W 003°35'0 0.0
2017-May-29 07:29N 50°22' W 003°35'  
2017-May-26 12:55N 50°22' W 003°35'0 0.0
2017-May-26 12:30N 50°22' W 003°35'0 0.0
2017-May-26 12:00N 50°22' W 003°35'0 0.0
2017-May-26 11:28N 50°22' W 003°35'0 0.0
2017-May-26 10:59N 50°22' W 003°35'0 0.0
2017-May-26 10:30N 50°22' W 003°35'0 0.0
2017-May-26 10:00N 50°22' W 003°35'0 0.1
2017-May-26 09:30N 50°22' W 003°35'2 3.6
2017-May-26 09:00N 50°20' W 003°33'3 6.1
2017-May-26 08:30N 50°18' W 003°30'3 5.1
2017-May-26 08:00N 50°17' W 003°26'2 4.4
2017-May-26 07:30N 50°17' W 003°23'2 4.5
2017-May-26 07:00N 50°16' W 003°19'2 4.7
2017-May-26 06:30N 50°16' W 003°16'2 4.6
2017-May-26 06:00N 50°16' W 003°12'2 3.9
2017-May-26 05:30N 50°15' W 003°09'2 3.2
2017-May-26 05:00N 50°15' W 003°07'2 3.6
2017-May-26 04:30N 50°14' W 003°04'2 4.0
2017-May-26 03:59N 50°14' W 003°01'2 4.4
2017-May-26 03:30N 50°14' W 002°58'3 4.9
2017-May-26 02:59N 50°13' W 002°54'3 5.6
2017-May-26 02:27N 50°14' W 002°49'41 5.2
2017-May-25 18:36N 49°39' W 002°15'1 5.8
2017-May-25 18:30N 49°39' W 002°16'8 4.9
2017-May-25 16:53N 49°34' W 002°25'3 6.2
2017-May-25 16:27N 49°32' W 002°28'6 5.0
2017-May-25 15:14N 49°26' W 002°31'1 5.1
2017-May-25 15:01N 49°26' W 002°30'4 3.9
2017-May-25 13:58N 49°22' W 002°26'3 6.9
2017-May-25 13:30N 49°24' W 002°30'3 0.9
2017-May-25 10:44N 49°26' W 002°31'4 5.8
2017-May-25 10:08N 49°30' W 002°29'1 3.9
2017-May-25 09:47N 49°31' W 002°27'2 5.3
2017-May-25 09:29N 49°32' W 002°27'2 4.5
2017-May-25 08:58N 49°32' W 002°23'  
2017-May-22 20:13N 50°33' W 001°50'2 4.6
2017-May-22 19:53N 50°35' W 001°50'2 5.2
2017-May-22 19:29N 50°37' W 001°50'4 1.9
2017-May-22 17:13N 50°35' W 001°44'1 2.2
2017-May-22 16:58N 50°35' W 001°43'1 2.1
2017-May-22 16:28N 50°35' W 001°42'1 3.1
2017-May-22 16:00N 50°36' W 001°41'3 5.0
2017-May-22 15:30N 50°38' W 001°38'2 4.5
2017-May-22 15:00N 50°40' W 001°36'4 4.2
2017-May-22 13:59N 50°43' W 001°31'1 2.4
2017-May-22 13:30N 50°44' W 001°30'3 5.0
2017-May-22 13:00N 50°45' W 001°26'3 5.4
2017-May-22 12:30N 50°45' W 001°22'3 5.3
2017-May-22 12:00N 50°46' W 001°18'1 2.8
2017-May-22 11:30N 50°46' W 001°16'1 1.0
2017-May-22 11:01N 50°46' W 001°15'0 0.1
2017-May-22 10:31N 50°46' W 001°15'1 1.5
2017-May-22 10:00N 50°46' W 001°14'1 2.6
2017-May-22 09:31N 50°46' W 001°16'1 1.8
2017-May-22 08:56N 50°46' W 001°18'0 0.0
2017-May-21 22:09N 50°46' W 001°18'0 0.0
2017-May-21 21:57N 50°46' W 001°18'0 0.0
2017-May-21 21:27N 50°46' W 001°18'0 0.0
2017-May-21 20:57N 50°46' W 001°18'0 0.0
2017-May-21 20:27N 50°46' W 001°18'0 0.0
2017-May-21 19:57N 50°46' W 001°18'0 0.0
2017-May-21 19:09N 50°46' W 001°18'0 0.0
2017-May-21 18:57N 50°46' W 001°18'0 0.0
2017-May-21 18:21N 50°46' W 001°18'0 0.0
2017-May-21 17:51N 50°46' W 001°18'0 0.0
2017-May-21 17:21N 50°46' W 001°18'0 0.0
2017-May-21 16:51N 50°46' W 001°18'0 0.0
2017-May-21 16:30N 50°46' W 001°18'0 0.0
2017-May-19 21:49N 50°46' W 001°18'0 0.0
2017-May-19 21:31N 50°46' W 001°18'0 0.0
2017-May-19 21:01N 50°46' W 001°18'0 0.0
2017-May-19 20:30N 50°46' W 001°18'0 0.0
2017-May-19 20:00N 50°46' W 001°18'0 0.0
2017-May-19 19:30N 50°46' W 001°18'0 0.0
2017-May-19 19:00N 50°46' W 001°18'0 0.0
2017-May-19 18:30N 50°46' W 001°18'0 0.0
2017-May-19 18:00N 50°46' W 001°18'0 0.0
2017-May-19 17:30N 50°46' W 001°18'0 0.0
2017-May-19 17:00N 50°46' W 001°18'0 0.0
2017-May-19 16:30N 50°46' W 001°18'0 0.0
2017-May-19 15:54N 50°46' W 001°18'0 0.0
2017-May-19 15:30N 50°46' W 001°18'0 0.0
2017-May-19 15:00N 50°46' W 001°18'0 0.0
2017-May-19 14:00N 50°46' W 001°18'0 0.0
2017-May-19 13:30N 50°46' W 001°18'0 0.0
2017-May-19 13:00N 50°46' W 001°18'0 0.0
2017-May-19 12:30N 50°46' W 001°18'0 0.0
2017-May-19 12:00N 50°46' W 001°18'0 0.0
2017-May-19 11:30N 50°46' W 001°18'  
Track history (hours):
 
Tides and Currents Weather Stations Pressure Air Temp Water Temp Dewpoint Dewpoint Depression Visibility Wind Speed Wind Dir Waves Ship Positions

Urania (Netherlands)

Flagship of the Royal Netherlands Naval College.

Last reported at 2017-May-29 11:30 UTC. Time now 2017-May-29 11:28 UTC.
Position N 50°14' W 003°29'.

Length 27 m; draft 2.6 m.

Type: Sailing vessel. MMSI: 245804000.

Date/timePositionNaut miles runAvg speedWind from/ knotsBaromVisibWave heightAir tempDewpointWater temp
2017-May-29 11:30N 50°14' W 003°29'3 5.9
2017-May-29 11:00N 50°16' W 003°32'1 2.5
2017-May-29 10:29N 50°17' W 003°33'1 2.7
2017-May-29 10:00N 50°19' W 003°32'2 3.6
2017-May-29 09:30N 50°20' W 003°34'1 2.6
2017-May-29 08:59N 50°22' W 003°35'0 0.0
2017-May-29 08:26N 50°22' W 003°35'0 0.0
2017-May-29 07:53N 50°22' W 003°35'0 0.0
2017-May-29 07:29N 50°22' W 003°35'  
2017-May-26 12:55N 50°22' W 003°35'0 0.0
2017-May-26 12:30N 50°22' W 003°35'0 0.0
2017-May-26 12:00N 50°22' W 003°35'0 0.0
2017-May-26 11:28N 50°22' W 003°35'0 0.0
2017-May-26 10:59N 50°22' W 003°35'0 0.0
2017-May-26 10:30N 50°22' W 003°35'0 0.0
2017-May-26 10:00N 50°22' W 003°35'0 0.1
2017-May-26 09:30N 50°22' W 003°35'2 3.6
2017-May-26 09:00N 50°20' W 003°33'3 6.1
2017-May-26 08:30N 50°18' W 003°30'3 5.1
2017-May-26 08:00N 50°17' W 003°26'2 4.4
2017-May-26 07:30N 50°17' W 003°23'2 4.5
2017-May-26 07:00N 50°16' W 003°19'2 4.7
2017-May-26 06:30N 50°16' W 003°16'2 4.6
2017-May-26 06:00N 50°16' W 003°12'2 3.9
2017-May-26 05:30N 50°15' W 003°09'2 3.2
2017-May-26 05:00N 50°15' W 003°07'2 3.6
2017-May-26 04:30N 50°14' W 003°04'2 4.0
2017-May-26 03:59N 50°14' W 003°01'2 4.4
2017-May-26 03:30N 50°14' W 002°58'3 4.9
2017-May-26 02:59N 50°13' W 002°54'3 5.6
2017-May-26 02:27N 50°14' W 002°49'41 5.2
2017-May-25 18:36N 49°39' W 002°15'1 5.8
2017-May-25 18:30N 49°39' W 002°16'8 4.9
2017-May-25 16:53N 49°34' W 002°25'3 6.2
2017-May-25 16:27N 49°32' W 002°28'6 5.0
2017-May-25 15:14N 49°26' W 002°31'1 5.1
2017-May-25 15:01N 49°26' W 002°30'4 3.9
2017-May-25 13:58N 49°22' W 002°26'3 6.9
2017-May-25 13:30N 49°24' W 002°30'3 0.9
2017-May-25 10:44N 49°26' W 002°31'4 5.8
2017-May-25 10:08N 49°30' W 002°29'1 3.9
2017-May-25 09:47N 49°31' W 002°27'2 5.3
2017-May-25 09:29N 49°32' W 002°27'2 4.5
2017-May-25 08:58N 49°32' W 002°23'  
2017-May-22 20:13N 50°33' W 001°50'2 4.6
2017-May-22 19:53N 50°35' W 001°50'2 5.2
2017-May-22 19:29N 50°37' W 001°50'4 1.9
2017-May-22 17:13N 50°35' W 001°44'1 2.2
2017-May-22 16:58N 50°35' W 001°43'1 2.1
2017-May-22 16:28N 50°35' W 001°42'1 3.1
2017-May-22 16:00N 50°36' W 001°41'3 5.0
2017-May-22 15:30N 50°38' W 001°38'2 4.5
2017-May-22 15:00N 50°40' W 001°36'4 4.2
2017-May-22 13:59N 50°43' W 001°31'1 2.4
2017-May-22 13:30N 50°44' W 001°30'3 5.0
2017-May-22 13:00N 50°45' W 001°26'3 5.4
2017-May-22 12:30N 50°45' W 001°22'3 5.3
2017-May-22 12:00N 50°46' W 001°18'1 2.8
2017-May-22 11:30N 50°46' W 001°16'1 1.0
2017-May-22 11:01N 50°46' W 001°15'0 0.1
2017-May-22 10:31N 50°46' W 001°15'1 1.5
2017-May-22 10:00N 50°46' W 001°14'1 2.6
2017-May-22 09:31N 50°46' W 001°16'1 1.8
2017-May-22 08:56N 50°46' W 001°18'0 0.0
2017-May-21 22:09N 50°46' W 001°18'0 0.0
2017-May-21 21:57N 50°46' W 001°18'0 0.0
2017-May-21 21:27N 50°46' W 001°18'0 0.0
2017-May-21 20:57N 50°46' W 001°18'0 0.0
2017-May-21 20:27N 50°46' W 001°18'0 0.0
2017-May-21 19:57N 50°46' W 001°18'0 0.0
2017-May-21 19:09N 50°46' W 001°18'0 0.0
2017-May-21 18:57N 50°46' W 001°18'0 0.0
2017-May-21 18:21N 50°46' W 001°18'0 0.0
2017-May-21 17:51N 50°46' W 001°18'0 0.0
2017-May-21 17:21N 50°46' W 001°18'0 0.0
2017-May-21 16:51N 50°46' W 001°18'0 0.0
2017-May-21 16:30N 50°46' W 001°18'0 0.0
2017-May-19 21:49N 50°46' W 001°18'0 0.0
2017-May-19 21:31N 50°46' W 001°18'0 0.0
2017-May-19 21:01N 50°46' W 001°18'0 0.0
2017-May-19 20:30N 50°46' W 001°18'0 0.0
2017-May-19 20:00N 50°46' W 001°18'0 0.0
2017-May-19 19:30N 50°46' W 001°18'0 0.0
2017-May-19 19:00N 50°46' W 001°18'0 0.0
2017-May-19 18:30N 50°46' W 001°18'0 0.0
2017-May-19 18:00N 50°46' W 001°18'0 0.0
2017-May-19 17:30N 50°46' W 001°18'0 0.0
2017-May-19 17:00N 50°46' W 001°18'0 0.0
2017-May-19 16:30N 50°46' W 001°18'0 0.0
2017-May-19 15:54N 50°46' W 001°18'0 0.0
2017-May-19 15:30N 50°46' W 001°18'0 0.0
2017-May-19 15:00N 50°46' W 001°18'0 0.0
2017-May-19 14:00N 50°46' W 001°18'0 0.0
2017-May-19 13:30N 50°46' W 001°18'0 0.0
2017-May-19 13:00N 50°46' W 001°18'0 0.0
2017-May-19 12:30N 50°46' W 001°18'0 0.0
2017-May-19 12:00N 50°46' W 001°18'0 0.0
2017-May-19 11:30N 50°46' W 001°18'  

Dump ship's entire track history